Time;durP1;ratioP1;P1;durP2;ratioP2;P2;SDS_P1;SDS_P2;PMS_P1;PMS_P2;Temp;Humidity;BMP_temperature;BMP_pressure;BME280_temperature;BME280_humidity;BME280_pressure;Samples;Min_cycle;Max_cycle;Signal;HPM_P1;HPM_P2
2024/01/30 00:01:56;;;;;;;0.00;0.00;;;25.50;45.30;;;;;;5027291;28;20574;-49
2024/01/30 00:04:27;;;;;;;0.00;0.00;;;25.60;45.30;;;;;;5027103;28;20676;-53
2024/01/30 00:07:00;;;;;;;0.00;0.00;;;25.60;45.20;;;;;;5027192;28;20208;-44
2024/01/30 00:09:30;;;;;;;0.00;0.00;;;25.60;45.20;;;;;;5027832;28;20228;-49
2024/01/30 00:12:01;;;;;;;0.00;0.00;;;25.60;45.10;;;;;;5026882;28;20200;-48
2024/01/30 00:14:32;;;;;;;0.00;0.00;;;25.60;45.20;;;;;;5027957;28;20195;-47
2024/01/30 00:17:03;;;;;;;0.00;0.00;;;25.60;45.60;;;;;;5027058;28;20220;-50
2024/01/30 00:19:34;;;;;;;0.00;0.00;;;25.70;45.10;;;;;;5027981;28;20216;-47
2024/01/30 00:22:07;;;;;;;0.00;0.00;;;25.70;45.00;;;;;;5026939;28;20200;-47
2024/01/30 00:24:38;;;;;;;0.00;0.00;;;25.70;45.20;;;;;;5027287;28;20290;-47
2024/01/30 00:27:09;;;;;;;0.00;0.00;;;25.70;45.10;;;;;;5026943;28;20813;-47
2024/01/30 00:29:39;;;;;;;0.00;0.00;;;25.70;45.00;;;;;;5027186;28;20224;-49
2024/01/30 00:32:10;;;;;;;0.00;0.00;;;25.80;45.10;;;;;;5027205;28;20196;-43
2024/01/30 00:34:41;;;;;;;0.00;0.00;;;25.80;45.10;;;;;;5029463;28;20601;-43
2024/01/30 00:37:14;;;;;;;0.00;0.00;;;25.80;45.10;;;;;;5030656;28;20282;-45
2024/01/30 00:39:44;;;;;;;0.00;0.00;;;25.80;45.10;;;;;;5030749;28;20200;-44
2024/01/30 00:42:15;;;;;;;0.00;0.00;;;25.80;44.90;;;;;;5030797;28;20200;-43
2024/01/30 00:44:46;;;;;;;0.00;0.00;;;25.80;44.90;;;;;;5029948;28;20212;-45
2024/01/30 00:47:17;;;;;;;0.00;0.00;;;25.80;44.90;;;;;;5030001;28;20220;-46
2024/01/30 00:49:48;;;;;;;0.00;0.00;;;25.80;44.90;;;;;;5029971;28;20235;-44
2024/01/30 00:52:20;;;;;;;0.00;0.00;;;25.80;45.00;;;;;;5029728;28;20218;-45
2024/01/30 00:54:51;;;;;;;0.00;0.00;;;25.80;44.90;;;;;;5030504;28;20200;-44
2024/01/30 00:57:22;;;;;;;0.00;0.00;;;25.80;44.90;;;;;;5030078;28;20216;-46
2024/01/30 00:59:52;;;;;;;0.00;0.00;;;25.90;45.00;;;;;;5030190;28;20204;-45
2024/01/30 01:02:23;;;;;;;0.00;0.00;;;25.90;45.00;;;;;;5030043;28;20204;-45
2024/01/30 01:04:54;;;;;;;0.00;0.00;;;25.90;44.90;;;;;;5030230;28;20204;-46
2024/01/30 01:07:26;;;;;;;0.00;0.00;;;25.90;44.80;;;;;;5029483;28;20766;-45
2024/01/30 01:09:57;;;;;;;0.00;0.00;;;25.90;44.80;;;;;;5029706;28;20224;-42
2024/01/30 01:12:28;;;;;;;0.00;0.00;;;25.90;44.80;;;;;;5029966;28;20247;-50
2024/01/30 01:14:59;;;;;;;0.00;0.00;;;25.90;44.80;;;;;;5027734;28;20463;-46
2024/01/30 01:17:29;;;;;;;0.00;0.00;;;25.90;44.80;;;;;;5027959;28;20262;-50
2024/01/30 01:20:00;;;;;;;0.00;0.00;;;25.90;44.70;;;;;;5029149;28;20196;-43
2024/01/30 01:22:33;;;;;;;0.00;0.00;;;25.90;44.70;;;;;;5030164;28;20200;-45
2024/01/30 01:25:06;;;;;;;0.00;0.00;;;26.00;44.80;;;;;;5029781;28;20555;-44
2024/01/30 01:27:40;;;;;;;0.00;0.00;;;26.00;44.80;;;;;;5029952;28;20308;-42
2024/01/30 01:30:18;;;;;;;0.00;0.00;;;25.90;44.80;;;;;;5030294;28;20311;-45
2024/01/30 01:32:54;;;;;;;0.00;0.00;;;26.00;44.80;;;;;;5030567;28;20231;-48
2024/01/30 01:35:26;;;;;;;0.00;0.00;;;26.00;44.70;;;;;;5029759;28;20299;-44
2024/01/30 01:38:00;;;;;;;0.00;0.00;;;26.00;44.80;;;;;;5029230;28;20243;-47
2024/01/30 01:40:30;;;;;;;0.00;0.00;;;26.00;44.90;;;;;;5029694;28;20204;-47
2024/01/30 01:43:01;;;;;;;0.00;0.00;;;26.00;45.00;;;;;;5030110;28;20227;-49
2024/01/30 01:45:32;;;;;;;0.00;0.00;;;26.00;44.90;;;;;;5028217;28;20208;-44
2024/01/30 01:48:03;;;;;;;0.00;0.00;;;26.00;45.00;;;;;;5028777;28;20224;-43
2024/01/30 01:50:34;;;;;;;0.00;0.00;;;26.00;45.00;;;;;;5029943;28;20224;-47
2024/01/30 01:53:07;;;;;;;0.00;0.00;;;26.10;45.10;;;;;;5029165;28;20548;-42
2024/01/30 01:55:38;;;;;;;0.00;0.00;;;26.10;45.10;;;;;;5028889;28;20356;-44
2024/01/30 01:58:10;;;;;;;0.00;0.00;;;26.10;45.70;;;;;;5029164;28;20220;-44
2024/01/30 02:00:41;;;;;;;0.00;0.00;;;26.10;45.10;;;;;;5029531;28;20204;-48
2024/01/30 02:03:16;;;;;;;0.00;0.00;;;26.10;45.10;;;;;;5029500;28;20204;-46
2024/01/30 02:05:47;;;;;;;0.00;0.00;;;26.10;45.10;;;;;;5028864;28;20235;-48
2024/01/30 02:08:20;;;;;;;0.00;0.00;;;26.10;45.10;;;;;;5029487;28;20231;-48
2024/01/30 02:10:51;;;;;;;0.00;0.00;;;26.10;45.10;;;;;;5028797;28;20243;-44
2024/01/30 02:13:22;;;;;;;0.00;0.00;;;26.20;45.00;;;;;;5029495;28;20203;-44
2024/01/30 02:15:54;;;;;;;0.00;0.00;;;26.10;44.90;;;;;;5028948;28;20200;-45
2024/01/30 02:18:25;;;;;;;0.00;0.00;;;26.10;44.90;;;;;;5028706;28;20239;-44
2024/01/30 02:21:01;;;;;;;0.00;0.00;;;26.10;44.90;;;;;;5028857;28;20215;-45
2024/01/30 02:23:36;;;;;;;0.00;0.00;;;26.20;44.80;;;;;;5024240;28;20289;-46
2024/01/30 02:26:06;;;;;;;0.00;0.00;;;26.20;44.90;;;;;;5027291;28;20203;-46
2024/01/30 02:28:37;;;;;;;0.00;0.00;;;26.20;44.80;;;;;;5028051;28;20204;-44
2024/01/30 02:31:08;;;;;;;0.00;0.00;;;26.20;44.80;;;;;;5029243;28;20243;-50
2024/01/30 02:33:39;;;;;;;0.00;0.00;;;26.20;44.90;;;;;;5028120;28;20208;-43
2024/01/30 02:36:10;;;;;;;0.00;0.00;;;26.20;44.90;;;;;;5027867;28;20205;-43
2024/01/30 02:38:42;;;;;;;0.00;0.00;;;26.20;44.80;;;;;;5027480;28;20675;-41
2024/01/30 02:41:13;;;;;;;0.00;0.00;;;26.20;44.80;;;;;;5028173;28;20787;-43
2024/01/30 02:43:44;;;;;;;0.00;0.00;;;26.20;44.80;;;;;;5027358;28;20204;-45
2024/01/30 02:46:14;;;;;;;0.00;0.00;;;26.20;44.70;;;;;;5028240;28;20570;-43
2024/01/30 02:48:45;;;;;;;0.00;0.00;;;26.20;44.70;;;;;;5028110;28;20192;-45
2024/01/30 02:51:16;;;;;;;0.00;0.00;;;26.20;44.80;;;;;;5028606;28;20591;-44
2024/01/30 02:53:48;;;;;;;0.00;0.00;;;26.20;45.30;;;;;;5028700;28;20196;-44
2024/01/30 02:56:19;;;;;;;0.00;0.00;;;26.30;44.80;;;;;;5027161;28;20200;-45
2024/01/30 02:58:50;;;;;;;0.00;0.00;;;26.30;44.80;;;;;;5027917;28;20203;-43
2024/01/30 03:01:20;;;;;;;0.00;0.00;;;26.30;44.70;;;;;;5028056;28;20196;-43
2024/01/30 03:03:51;;;;;;;0.00;0.00;;;26.30;44.70;;;;;;5027566;28;20199;-46
2024/01/30 03:06:22;;;;;;;0.00;0.00;;;26.40;44.80;;;;;;5027445;28;20707;-45
2024/01/30 03:08:55;;;;;;;0.00;0.00;;;26.40;44.80;;;;;;5028038;28;20208;-42
2024/01/30 03:11:26;;;;;;;0.00;0.00;;;26.40;44.70;;;;;;5026055;28;20714;-41
2024/01/30 03:13:56;;;;;;;0.00;0.00;;;26.40;44.70;;;;;;5027298;28;20192;-48
2024/01/30 03:16:27;;;;;;;0.00;0.00;;;26.50;44.70;;;;;;5027433;28;20246;-50
2024/01/30 03:18:58;;;;;;;0.00;0.00;;;26.50;44.70;;;;;;5027533;28;20215;-49
2024/01/30 03:21:28;;;;;;;0.00;0.00;;;26.50;44.70;;;;;;5028503;28;20200;-51
2024/01/30 03:24:01;;;;;;;0.00;0.00;;;26.50;44.60;;;;;;5027847;28;20204;-51
2024/01/30 03:26:32;;;;;;;0.00;0.00;;;26.50;44.60;;;;;;5027959;28;20223;-51
2024/01/30 03:29:07;;;;;;;0.00;0.00;;;26.50;45.20;;;;;;5008282;28;20438;-51
2024/01/30 03:31:38;;;;;;;0.00;0.00;;;26.50;44.60;;;;;;5008295;28;20227;-54
2024/01/30 03:34:11;;;;;;;0.00;0.00;;;26.60;44.60;;;;;;5007870;28;20224;-47
2024/01/30 03:36:42;;;;;;;0.00;0.00;;;26.60;44.70;;;;;;5007954;28;20221;-50
2024/01/30 03:39:14;;;;;;;0.00;0.00;;;26.60;44.60;;;;;;5013883;28;20203;-49
2024/01/30 03:41:47;;;;;;;0.00;0.00;;;26.70;44.60;;;;;;5027154;28;20250;-47
2024/01/30 03:44:17;;;;;;;0.00;0.00;;;26.70;44.60;;;;;;5027629;28;20207;-47
2024/01/30 03:46:48;;;;;;;0.00;0.00;;;26.70;44.50;;;;;;5026711;28;20220;-46
2024/01/30 03:49:19;;;;;;;0.00;0.00;;;26.80;44.50;;;;;;5027295;28;20204;-46
2024/01/30 03:51:49;;;;;;;0.00;0.00;;;26.80;44.50;;;;;;5016315;28;20223;-44
2024/01/30 03:54:22;;;;;;;0.00;0.00;;;26.90;44.60;;;;;;5026362;28;20211;-47
2024/01/30 03:56:53;;;;;;;0.00;0.00;;;26.80;44.40;;;;;;5026151;28;20580;-42
2024/01/30 03:59:24;;;;;;;0.00;0.00;;;26.90;44.40;;;;;;5027259;28;20219;-46
2024/01/30 04:01:55;;;;;;;0.00;0.00;;;26.90;44.40;;;;;;5027200;28;20262;-45
2024/01/30 04:04:25;;;;;;;0.00;0.00;;;27.00;44.40;;;;;;5027016;28;20200;-46
2024/01/30 04:06:56;;;;;;;0.00;0.00;;;27.00;44.30;;;;;;5027274;28;20224;-43
2024/01/30 04:09:29;;;;;;;0.00;0.00;;;27.00;44.30;;;;;;5028941;28;20200;-43
2024/01/30 04:11:59;;;;;;;0.00;0.00;;;27.00;44.30;;;;;;5030473;28;20625;-45
2024/01/30 04:14:30;;;;;;;0.00;0.00;;;27.00;44.20;;;;;;5030822;28;20200;-46
2024/01/30 04:17:01;;;;;;;0.00;0.00;;;27.00;44.20;;;;;;5031504;28;20587;-49
2024/01/30 04:19:31;;;;;;;0.00;0.00;;;27.00;44.20;;;;;;5030592;28;20200;-46
2024/01/30 04:22:02;;;;;;;0.00;0.00;;;27.10;44.20;;;;;;5030906;28;20564;-46
2024/01/30 04:24:35;;;;;;;0.00;0.00;;;27.10;44.20;;;;;;5030587;28;20227;-44
2024/01/30 04:27:06;;;;;;;0.00;0.00;;;27.10;44.10;;;;;;5010515;28;20232;-45
2024/01/30 04:29:36;;;;;;;0.00;0.00;;;27.10;44.10;;;;;;5011493;28;20213;-46
2024/01/30 04:32:08;;;;;;;0.00;0.00;;;27.10;44.10;;;;;;5011280;28;20225;-47
2024/01/30 04:34:39;;;;;;;0.00;0.00;;;27.20;44.10;;;;;;5017627;28;20196;-49
2024/01/30 04:37:09;;;;;;;0.00;0.00;;;27.20;44.10;;;;;;5030311;28;20220;-50
2024/01/30 04:39:42;;;;;;;0.00;0.00;;;27.30;44.10;;;;;;5030654;28;20196;-42
2024/01/30 04:42:13;;;;;;;0.00;0.00;;;27.30;44.10;;;;;;5030275;28;20204;-46
2024/01/30 04:44:44;;;;;;;0.00;0.00;;;27.30;44.00;;;;;;5030315;28;20679;-48
2024/01/30 04:47:15;;;;;;;0.00;0.00;;;27.30;44.00;;;;;;5030089;28;20224;-47
2024/01/30 04:49:45;;;;;;;0.00;0.00;;;27.40;44.00;;;;;;5030220;28;20203;-48
2024/01/30 04:52:16;;;;;;;0.00;0.00;;;27.40;43.90;;;;;;5030733;28;20232;-48
2024/01/30 04:54:49;;;;;;;0.00;0.00;;;27.40;43.90;;;;;;5030391;28;20207;-50
2024/01/30 04:57:19;;;;;;;0.00;0.00;;;27.50;43.90;;;;;;5030521;28;20220;-50
2024/01/30 04:59:50;;;;;;;0.00;0.00;;;27.40;43.80;;;;;;5030325;28;20216;-49
2024/01/30 05:02:21;;;;;;;0.00;0.00;;;27.40;43.80;;;;;;5029742;28;20203;-47
2024/01/30 05:04:52;;;;;;;0.00;0.00;;;27.50;43.80;;;;;;5030457;28;20230;-47
2024/01/30 05:07:22;;;;;;;0.00;0.00;;;27.50;43.80;;;;;;5029870;28;20216;-48
2024/01/30 05:09:55;;;;;;;0.00;0.00;;;27.50;43.80;;;;;;5029177;28;20555;-48
2024/01/30 05:12:26;;;;;;;0.00;0.00;;;27.50;43.80;;;;;;5025029;28;20600;-48
2024/01/30 05:14:56;;;;;;;0.00;0.00;;;27.50;43.80;;;;;;5030060;28;20207;-49
2024/01/30 05:17:27;;;;;;;0.00;0.00;;;27.60;43.80;;;;;;5028853;28;20620;-48
2024/01/30 05:19:58;;;;;;;0.00;0.00;;;27.60;43.80;;;;;;5029613;28;20200;-47
2024/01/30 05:22:28;;;;;;;0.00;0.00;;;27.60;43.80;;;;;;5029768;28;20580;-47
2024/01/30 05:25:01;;;;;;;0.00;0.00;;;27.60;43.70;;;;;;5028182;28;20196;-44
2024/01/30 05:27:32;;;;;;;0.00;0.00;;;27.60;43.70;;;;;;5029515;28;20212;-47
2024/01/30 05:30:02;;;;;;;0.00;0.00;;;27.60;43.60;;;;;;5029934;28;20231;-50
2024/01/30 05:32:33;;;;;;;0.00;0.00;;;27.70;43.70;;;;;;5030096;28;20232;-44
2024/01/30 05:35:04;;;;;;;0.00;0.00;;;27.70;43.70;;;;;;5029798;28;20204;-47
2024/01/30 05:37:35;;;;;;;0.00;0.00;;;27.70;43.60;;;;;;5029170;28;20228;-44
2024/01/30 05:40:08;;;;;;;0.00;0.00;;;27.70;43.60;;;;;;5028620;28;20223;-47
2024/01/30 05:42:39;;;;;;;0.00;0.00;;;27.80;43.70;;;;;;5029139;28;20207;-46
2024/01/30 05:45:10;;;;;;;0.00;0.00;;;27.80;43.60;;;;;;5029339;28;20203;-48
2024/01/30 05:47:40;;;;;;;0.00;0.00;;;27.80;43.70;;;;;;5028788;28;20224;-49
2024/01/30 05:50:12;;;;;;;0.00;0.00;;;27.80;43.70;;;;;;5029463;28;20215;-50
2024/01/30 05:52:42;;;;;;;0.00;0.00;;;27.80;43.60;;;;;;5028896;28;20224;-51
2024/01/30 05:55:15;;;;;;;0.00;0.00;;;27.80;43.50;;;;;;5028941;28;20200;-48
2024/01/30 05:57:46;;;;;;;0.00;0.00;;;27.80;43.50;;;;;;5028382;28;21374;-51
2024/01/30 06:00:18;;;;;;;0.00;0.00;;;27.80;43.50;;;;;;5029026;28;20580;-46
2024/01/30 06:02:48;;;;;;;0.00;0.00;;;27.80;43.50;;;;;;5029213;28;20204;-46
2024/01/30 06:05:19;;;;;;;0.00;0.00;;;27.80;43.50;;;;;;5028590;28;20199;-50
2024/01/30 06:07:50;;;;;;;0.00;0.00;;;27.80;43.50;;;;;;5029046;28;20700;-48
2024/01/30 06:10:22;;;;;;;0.00;0.00;;;27.90;43.50;;;;;;5028822;28;20200;-49
2024/01/30 06:12:53;;;;;;;0.00;0.00;;;27.90;43.50;;;;;;5028822;28;20231;-46
2024/01/30 06:15:24;;;;;;;0.00;0.00;;;27.80;43.40;;;;;;5029448;28;20246;-46
2024/01/30 06:17:54;;;;;;;0.00;0.00;;;27.90;44.10;;;;;;5029197;28;20696;-47
2024/01/30 06:20:25;;;;;;;0.00;0.00;;;27.80;43.40;;;;;;5028909;28;20208;-47
2024/01/30 06:22:56;;;;;;;0.00;0.00;;;27.80;43.30;;;;;;5028866;28;20204;-44
2024/01/30 06:25:28;;;;;;;0.00;0.00;;;27.90;43.40;;;;;;5027954;28;20196;-45
2024/01/30 06:27:59;;;;;;;0.00;0.00;;;27.90;43.30;;;;;;5027833;28;20224;-47
2024/01/30 06:30:33;;;;;;;0.00;0.00;;;27.90;43.30;;;;;;5028373;28;20575;-46
2024/01/30 06:33:04;;;;;;;0.00;0.00;;;27.80;43.20;;;;;;5028530;28;20223;-50
2024/01/30 06:35:36;;;;;;;0.00;0.00;;;27.80;43.20;;;;;;5028271;28;20204;-48
2024/01/30 06:38:06;;;;;;;0.00;0.00;;;27.80;43.20;;;;;;5028771;28;20231;-46
2024/01/30 06:40:39;;;;;;;0.00;0.00;;;27.80;43.20;;;;;;5023037;22;20235;-45
2024/01/30 06:43:11;;;;;;;0.00;0.00;;;27.80;43.20;;;;;;5008935;28;20204;-48
2024/01/30 06:45:42;;;;;;;0.00;0.00;;;27.80;43.30;;;;;;5025154;28;20287;-45
2024/01/30 06:48:13;;;;;;;0.00;0.00;;;27.80;43.30;;;;;;5021956;28;20228;-45
2024/01/30 06:50:43;;;;;;;0.00;0.00;;;27.80;43.30;;;;;;5008989;28;20657;-45
2024/01/30 06:53:14;;;;;;;0.00;0.00;;;27.80;43.30;;;;;;5008703;28;20228;-45
2024/01/30 06:55:47;;;;;;;0.00;0.00;;;27.80;43.30;;;;;;5008148;28;20201;-45
2024/01/30 06:58:17;;;;;;;0.00;0.00;;;27.80;43.30;;;;;;5020639;28;20223;-45
2024/01/30 07:00:48;;;;;;;0.00;0.00;;;27.80;43.30;;;;;;5028241;28;20212;-45
2024/01/30 07:03:19;;;;;;;0.00;0.00;;;27.80;43.30;;;;;;5028247;28;20200;-45
2024/01/30 07:05:49;;;;;;;0.00;0.00;;;27.80;43.30;;;;;;5010115;28;20199;-46
2024/01/30 07:08:20;;;;;;;0.00;0.00;;;27.80;43.30;;;;;;5008039;28;20649;-47
2024/01/30 07:10:55;;;;;;;0.00;0.00;;;27.80;43.30;;;;;;5014450;28;20227;-46
2024/01/30 07:13:25;;;;;;;0.00;0.00;;;27.80;43.40;;;;;;5018150;28;20252;-46
2024/01/30 07:15:56;;;;;;;0.00;0.00;;;27.80;43.30;;;;;;4992309;28;20221;-45
2024/01/30 07:18:27;;;;;;;0.00;0.00;;;27.70;43.30;;;;;;4999494;28;20589;-46
2024/01/30 07:20:57;;;;;;;0.00;0.00;;;27.80;43.30;;;;;;5012156;28;20196;-46
2024/01/30 07:23:29;;;;;;;0.00;0.00;;;27.80;43.30;;;;;;5011849;28;20281;-45
2024/01/30 07:26:02;;;;;;;0.00;0.00;;;27.70;43.40;;;;;;5005431;28;20207;-46
2024/01/30 07:28:32;;;;;;;0.00;0.00;;;27.70;43.60;;;;;;5007008;28;21023;-47
2024/01/30 07:31:03;;;;;;;0.00;0.00;;;27.70;43.70;;;;;;5007835;28;20197;-45
2024/01/30 07:33:34;;;;;;;0.00;0.00;;;27.70;43.80;;;;;;5007782;28;20224;-44
2024/01/30 07:36:05;;;;;;;0.00;0.00;;;27.70;43.70;;;;;;5008630;28;20288;-45
2024/01/30 07:38:36;;;;;;;0.00;0.00;;;27.60;43.70;;;;;;5021858;22;20207;-41
2024/01/30 07:41:09;;;;;;;0.00;0.00;;;27.60;43.80;;;;;;5035731;28;20220;-50
2024/01/30 07:43:40;;;;;;;0.00;0.00;;;27.60;43.80;;;;;;5036926;28;20222;-42
2024/01/30 07:46:11;;;;;;;0.00;0.00;;;27.60;43.80;;;;;;5047297;28;20226;-47
2024/01/30 07:48:41;;;;;;;0.00;0.00;;;27.50;43.80;;;;;;5021513;28;20211;-47
2024/01/30 07:51:12;;;;;;;0.00;0.00;;;27.60;43.90;;;;;;5031964;28;20287;-49
2024/01/30 07:53:46;;;;;;;0.00;0.00;;;27.60;43.90;;;;;;5030872;28;20587;-51
2024/01/30 07:56:19;;;;;;;0.00;0.00;;;27.50;43.80;;;;;;5025288;28;20196;-52
2024/01/30 07:58:50;;;;;;;0.00;0.00;;;27.50;43.80;;;;;;5011031;28;20205;-45
2024/01/30 08:01:21;;;;;;;0.00;0.00;;;27.50;43.80;;;;;;5011897;28;20204;-53
2024/01/30 08:03:51;;;;;;;0.00;0.00;;;27.50;43.80;;;;;;5011707;28;20200;-50
2024/01/30 08:06:22;;;;;;;0.00;0.00;;;27.40;43.80;;;;;;5015730;28;20234;-49
2024/01/30 08:08:53;;;;;;;0.00;0.00;;;27.40;43.80;;;;;;5030609;28;20233;-48
2024/01/30 08:11:27;;;;;;;0.00;0.00;;;27.40;43.80;;;;;;5031374;28;20208;-45
2024/01/30 08:13:57;;;;;;;0.00;0.00;;;27.40;43.80;;;;;;5030994;28;20606;-47
2024/01/30 08:16:28;;;;;;;0.00;0.00;;;27.40;43.80;;;;;;5024690;28;20223;-43
2024/01/30 08:18:59;;;;;;;0.00;0.00;;;27.40;43.80;;;;;;5023234;28;20471;-49
2024/01/30 08:21:30;;;;;;;0.00;0.00;;;27.40;43.70;;;;;;5020651;28;20204;-48
2024/01/30 08:24:00;;;;;;;0.00;0.00;;;27.40;43.70;;;;;;5031619;28;20200;-45
2024/01/30 08:26:33;;;;;;;0.00;0.00;;;27.30;43.70;;;;;;5030856;28;20228;-43
2024/01/30 08:29:04;;;;;;;0.00;0.00;;;27.30;43.60;;;;;;5030417;28;20223;-44
2024/01/30 08:31:34;;;;;;;0.00;0.00;;;27.30;43.60;;;;;;5030795;28;20212;-44
2024/01/30 08:34:05;;;;;;;0.00;0.00;;;27.30;43.70;;;;;;5030403;28;20227;-40
2024/01/30 08:36:36;;;;;;;0.00;0.00;;;27.20;43.60;;;;;;5029942;28;20754;-44
2024/01/30 08:39:07;;;;;;;0.00;0.00;;;27.20;43.60;;;;;;5031081;28;20207;-46
2024/01/30 08:41:39;;;;;;;0.00;0.00;;;27.30;43.70;;;;;;5029980;28;20262;-44
2024/01/30 08:44:11;;;;;;;0.00;0.00;;;27.20;43.70;;;;;;5029069;28;20211;-55
2024/01/30 08:46:42;;;;;;;0.00;0.00;;;27.20;43.60;;;;;;5029722;28;20228;-44
2024/01/30 08:49:13;;;;;;;0.00;0.00;;;27.20;44.00;;;;;;5030582;28;20676;-53
2024/01/30 08:51:43;;;;;;;0.00;0.00;;;27.10;44.10;;;;;;5030911;28;20672;-48
2024/01/30 08:54:14;;;;;;;0.00;0.00;;;27.10;44.20;;;;;;5030233;28;20487;-46
2024/01/30 08:56:47;;;;;;;0.00;0.00;;;27.10;44.20;;;;;;5029360;28;20224;-42
2024/01/30 08:59:17;;;;;;;0.00;0.00;;;27.10;44.20;;;;;;5030309;28;20206;-51
2024/01/30 09:01:48;;;;;;;0.00;0.00;;;27.10;44.20;;;;;;5029957;28;20825;-49
2024/01/30 09:04:19;;;;;;;0.00;0.00;;;27.00;44.10;;;;;;5028783;28;20689;-50
2024/01/30 09:06:50;;;;;;;0.00;0.00;;;27.00;44.10;;;;;;5028668;28;20224;-49
2024/01/30 09:09:21;;;;;;;0.00;0.00;;;27.00;44.30;;;;;;5009899;28;20669;-50
2024/01/30 09:11:54;;;;;;;0.00;0.00;;;27.00;44.10;;;;;;5010342;28;20202;-47
2024/01/30 09:14:24;;;;;;;0.00;0.00;;;27.00;44.10;;;;;;5016443;28;20226;-46
2024/01/30 09:16:55;;;;;;;0.00;0.00;;;27.00;44.10;;;;;;5029844;28;20223;-46
2024/01/30 09:19:26;;;;;;;0.00;0.00;;;27.00;44.10;;;;;;5030099;28;20204;-41
2024/01/30 09:21:56;;;;;;;0.00;0.00;;;26.90;44.10;;;;;;5029552;28;20230;-46
2024/01/30 09:24:28;;;;;;;0.00;0.00;;;26.90;44.10;;;;;;5030463;28;20720;-43
2024/01/30 09:27:00;;;;;;;0.00;0.00;;;27.00;44.10;;;;;;5029349;28;20219;-44
2024/01/30 09:29:32;;;;;;;0.00;0.00;;;26.90;44.10;;;;;;5030044;28;20210;-46
2024/01/30 09:32:03;;;;;;;0.00;0.00;;;26.90;44.10;;;;;;5029591;28;20204;-50
2024/01/30 09:34:34;;;;;;;0.00;0.00;;;26.90;44.10;;;;;;5029346;28;20228;-47
2024/01/30 09:37:05;;;;;;;0.00;0.00;;;26.80;44.00;;;;;;5029165;28;20235;-48
2024/01/30 09:39:35;;;;;;;0.00;0.00;;;26.90;44.10;;;;;;5028617;28;20212;-39
2024/01/30 09:42:13;;;;;;;0.00;0.00;;;26.90;44.10;;;;;;5033399;28;20203;-46
2024/01/30 09:44:45;;;;;;;0.00;0.00;;;26.80;44.00;;;;;;5033379;28;20200;-41
2024/01/30 09:47:18;;;;;;;0.00;0.00;;;26.80;44.00;;;;;;5033232;28;20231;-40
2024/01/30 09:49:49;;;;;;;0.00;0.00;;;26.80;43.90;;;;;;5029521;28;20200;-47
2024/01/30 09:52:20;;;;;;;0.00;0.00;;;26.80;43.90;;;;;;5033268;28;20196;-44
2024/01/30 09:54:54;;;;;;;0.00;0.00;;;26.80;43.90;;;;;;5032877;28;20200;-47
2024/01/30 09:57:26;;;;;;;0.00;0.00;;;26.80;43.90;;;;;;5032744;28;20262;-50
2024/01/30 09:59:57;;;;;;;0.00;0.00;;;26.80;43.90;;;;;;5023037;28;20199;-43
2024/01/30 10:02:28;;;;;;;0.00;0.00;;;26.70;43.80;;;;;;5023520;28;20197;-50
2024/01/30 10:05:02;;;;;;;0.00;0.00;;;26.70;43.90;;;;;;5022109;28;20185;-52
2024/01/30 10:07:33;;;;;;;0.00;0.00;;;26.70;43.80;;;;;;5020595;28;20212;-43
2024/01/30 10:10:05;;;;;;;0.00;0.00;;;26.70;43.80;;;;;;5021917;28;20718;-45
2024/01/30 10:12:37;;;;;;;0.00;0.00;;;26.70;43.80;;;;;;5022936;28;20193;-39
2024/01/30 10:15:11;;;;;;;0.00;0.00;;;26.60;43.80;;;;;;5023294;28;20212;-44
2024/01/30 10:17:42;;;;;;;0.00;0.00;;;26.60;44.30;;;;;;5022069;28;20220;-42
2024/01/30 10:20:13;;;;;;;0.00;0.00;;;26.60;43.80;;;;;;5021054;28;20188;-42
2024/01/30 10:22:45;;;;;;;0.00;0.00;;;26.60;43.80;;;;;;5021943;28;20196;-45
2024/01/30 10:25:16;;;;;;;0.00;0.00;;;26.60;43.80;;;;;;5021244;28;20251;-44
2024/01/30 10:27:48;;;;;;;0.00;0.00;;;26.50;43.70;;;;;;5021681;28;20211;-49
2024/01/30 10:30:19;;;;;;;0.00;0.00;;;26.50;43.70;;;;;;5021564;28;20648;-47
2024/01/30 10:32:50;;;;;;;0.00;0.00;;;26.50;43.70;;;;;;5020912;28;20184;-43
2024/01/30 10:35:21;;;;;;;0.00;0.00;;;26.50;43.70;;;;;;5021777;28;20192;-51
2024/01/30 10:37:52;;;;;;;0.00;0.00;;;26.50;43.70;;;;;;5020754;28;20220;-44
2024/01/30 10:40:29;;;;;;;0.00;0.00;;;26.50;43.70;;;;;;5036669;23;20435;-44
2024/01/30 10:43:04;;;;;;;0.00;0.00;;;26.50;43.70;;;;;;5023051;28;20196;-43
2024/01/30 10:45:36;;;;;;;0.00;0.00;;;26.40;43.60;;;;;;5023047;28;20682;-43
2024/01/30 10:48:11;;;;;;;0.00;0.00;;;26.40;43.60;;;;;;5022057;28;20216;-43
2024/01/30 10:50:44;;;;;;;0.00;0.00;;;26.40;43.60;;;;;;5021231;28;20243;-43
2024/01/30 10:53:16;;;;;;;0.00;0.00;;;26.40;43.60;;;;;;5020370;28;20221;-44
2024/01/30 10:55:48;;;;;;;0.00;0.00;;;26.40;43.70;;;;;;5021431;28;20197;-43
2024/01/30 10:58:21;;;;;;;0.00;0.00;;;26.30;43.60;;;;;;5021199;28;20205;-45
2024/01/30 11:00:53;;;;;;;0.00;0.00;;;26.30;43.60;;;;;;5020675;28;20212;-46
2024/01/30 11:03:24;;;;;;;0.00;0.00;;;26.30;43.60;;;;;;5023306;28;20192;-45
2024/01/30 11:05:56;;;;;;;0.00;0.00;;;26.30;43.60;;;;;;5022140;28;20195;-45
2024/01/30 11:08:40;;;;;;;0.00;0.00;;;26.20;43.50;;;;;;5022166;28;20204;-45
2024/01/30 11:11:24;;;;;;;0.00;0.00;;;26.20;43.50;;;;;;5022275;28;20223;-46
2024/01/30 11:14:30;;;;;;;0.00;0.00;;;26.20;43.50;;;;;;5021449;28;20227;-45
2024/01/30 11:17:02;;;;;;;0.00;0.00;;;26.20;43.60;;;;;;5020509;28;20244;-43
2024/01/30 11:19:36;;;;;;;0.00;0.00;;;26.20;43.50;;;;;;5021241;28;20228;-43
2024/01/30 11:22:08;;;;;;;0.00;0.00;;;26.10;43.60;;;;;;5021101;28;20188;-43
2024/01/30 11:24:43;;;;;;;0.00;0.00;;;26.10;43.60;;;;;;5020754;28;20556;-45
2024/01/30 11:27:15;;;;;;;0.00;0.00;;;26.10;43.60;;;;;;5020197;28;20208;-43
2024/01/30 11:29:54;;;;;;;0.00;0.00;;;26.10;43.60;;;;;;5024849;28;20212;-43
2024/01/30 11:32:27;;;;;;;0.00;0.00;;;26.10;43.60;;;;;;5018659;28;20665;-43
2024/01/30 11:34:57;;;;;;;0.00;0.00;;;26.10;43.60;;;;;;5010804;28;20224;-45
2024/01/30 11:37:29;;;;;;;0.00;0.00;;;26.10;43.60;;;;;;5011489;28;20217;-43
2024/01/30 11:40:01;;;;;;;0.00;0.00;;;26.10;43.60;;;;;;5025197;28;20207;-43
2024/01/30 11:42:34;;;;;;;0.00;0.00;;;26.10;43.60;;;;;;5031882;28;20203;-43
2024/01/30 11:45:07;;;;;;;0.00;0.00;;;26.00;44.10;;;;;;5031576;28;20204;-43
2024/01/30 11:47:39;;;;;;;0.00;0.00;;;26.00;43.50;;;;;;5028971;28;20216;-45
2024/01/30 11:50:11;;;;;;;0.00;0.00;;;26.00;43.50;;;;;;5027808;28;20189;-48
2024/01/30 11:52:42;;;;;;;0.00;0.00;;;26.00;43.50;;;;;;5031142;28;20203;-45
2024/01/30 11:55:14;;;;;;;0.00;0.00;;;26.00;43.50;;;;;;5031547;28;20235;-45
2024/01/30 11:57:46;;;;;;;0.00;0.00;;;25.90;43.40;;;;;;5031074;28;20216;-45
2024/01/30 12:00:22;;;;;;;0.00;0.00;;;25.90;43.40;;;;;;5030877;28;20403;-45
2024/01/30 12:02:55;;;;;;;0.00;0.00;;;25.90;43.50;;;;;;5031321;28;20200;-45
2024/01/30 12:05:26;;;;;;;0.00;0.00;;;25.90;43.50;;;;;;5031474;28;20196;-46
2024/01/30 12:07:58;;;;;;;0.00;0.00;;;25.90;43.50;;;;;;5030847;28;20219;-45
2024/01/30 12:10:29;;;;;;;0.00;0.00;;;25.80;43.50;;;;;;5030735;28;20200;-45
2024/01/30 12:13:00;;;;;;;0.00;0.00;;;25.80;43.50;;;;;;5031515;28;20211;-45
2024/01/30 12:15:33;;;;;;;0.00;0.00;;;25.80;43.50;;;;;;5031205;28;20200;-45
2024/01/30 12:18:10;;;;;;;0.00;0.00;;;25.80;43.50;;;;;;5022305;28;20213;-45
2024/01/30 12:20:41;;;;;;;0.00;0.00;;;25.80;43.50;;;;;;5011309;28;20203;-46
2024/01/30 12:23:14;;;;;;;0.00;0.00;;;25.80;43.50;;;;;;5010908;28;20197;-46
2024/01/30 12:25:45;;;;;;;0.00;0.00;;;25.80;43.50;;;;;;5010827;28;20201;-45
2024/01/30 12:28:16;;;;;;;0.00;0.00;;;25.80;43.50;;;;;;5011319;28;20219;-47
2024/01/30 12:30:48;;;;;;;0.00;0.00;;;25.70;43.50;;;;;;5013742;28;20653;-46
2024/01/30 12:33:20;;;;;;;0.00;0.00;;;25.70;43.50;;;;;;5015048;28;20199;-45
2024/01/30 12:35:52;;;;;;;0.00;0.00;;;25.70;43.50;;;;;;5015282;28;20193;-45
2024/01/30 12:38:23;;;;;;;0.00;0.00;;;25.70;43.50;;;;;;5014750;28;20689;-45
2024/01/30 12:40:57;;;;;;;0.00;0.00;;;25.70;43.50;;;;;;5026470;28;20208;-46
2024/01/30 12:43:29;;;;;;;0.00;0.00;;;25.70;43.50;;;;;;5034474;28;20249;-45
2024/01/30 12:46:02;;;;;;;0.00;0.00;;;25.70;43.50;;;;;;5034131;28;20199;-45
2024/01/30 12:48:33;;;;;;;0.00;0.00;;;25.60;43.40;;;;;;5034412;28;20203;-45
2024/01/30 12:51:03;;;;;;;0.00;0.00;;;25.60;43.50;;;;;;5034576;28;20192;-45
2024/01/30 12:53:34;;;;;;;0.00;0.00;;;25.60;43.50;;;;;;5034568;28;22635;-45
2024/01/30 12:56:05;;;;;;;0.00;0.00;;;25.50;43.50;;;;;;5034329;28;20196;-45
2024/01/30 12:58:36;;;;;;;0.00;0.00;;;25.50;43.50;;;;;;5033979;28;20207;-45
2024/01/30 13:01:09;;;;;;;0.00;0.00;;;25.50;43.50;;;;;;5034390;28;20203;-45
2024/01/30 13:03:39;;;;;;;0.00;0.00;;;25.50;43.50;;;;;;5034276;28;20204;-48
2024/01/30 13:06:10;;;;;;;0.00;0.00;;;25.50;43.50;;;;;;5034550;28;20200;-46
2024/01/30 13:08:41;;;;;;;0.00;0.00;;;25.50;43.50;;;;;;5034217;28;20569;-46
2024/01/30 13:11:12;;;;;;;0.00;0.00;;;25.50;43.50;;;;;;5033895;28;20200;-45